sensor_id;sensor_type;location;lat;lon;timestamp;P1;durP1;ratioP1;P2;durP2;ratioP2
29026;SDS011;16120;48.608;9.092;2023-07-31T00:00:36;0.50;;;0.30;;
29026;SDS011;16120;48.608;9.092;2023-07-31T00:04:32;0.50;;;0.30;;
29026;SDS011;16120;48.608;9.092;2023-07-31T00:08:29;0.50;;;0.30;;
29026;SDS011;16120;48.608;9.092;2023-07-31T00:12:24;0.50;;;0.30;;
29026;SDS011;16120;48.608;9.092;2023-07-31T00:16:21;0.50;;;0.30;;
29026;SDS011;16120;48.608;9.092;2023-07-31T00:20:16;0.50;;;0.30;;
29026;SDS011;16120;48.608;9.092;2023-07-31T00:24:11;0.50;;;0.30;;
29026;SDS011;16120;48.608;9.092;2023-07-31T00:28:07;0.50;;;0.30;;
29026;SDS011;16120;48.608;9.092;2023-07-31T00:32:03;0.50;;;0.30;;
29026;SDS011;16120;48.608;9.092;2023-07-31T00:35:59;0.50;;;0.30;;
29026;SDS011;16120;48.608;9.092;2023-07-31T00:39:54;0.50;;;0.30;;
29026;SDS011;16120;48.608;9.092;2023-07-31T00:43:49;0.47;;;0.30;;
29026;SDS011;16120;48.608;9.092;2023-07-31T00:47:46;0.47;;;0.30;;
29026;SDS011;16120;48.608;9.092;2023-07-31T00:51:41;0.50;;;0.30;;
29026;SDS011;16120;48.608;9.092;2023-07-31T00:55:36;0.40;;;0.30;;
29026;SDS011;16120;48.608;9.092;2023-07-31T00:59:31;0.50;;;0.30;;
29026;SDS011;16120;48.608;9.092;2023-07-31T01:03:28;0.50;;;0.30;;
29026;SDS011;16120;48.608;9.092;2023-07-31T01:07:25;0.40;;;0.30;;
29026;SDS011;16120;48.608;9.092;2023-07-31T01:11:24;0.40;;;0.30;;
29026;SDS011;16120;48.608;9.092;2023-07-31T01:15:20;0.43;;;0.30;;
29026;SDS011;16120;48.608;9.092;2023-07-31T01:19:17;0.40;;;0.30;;
29026;SDS011;16120;48.608;9.092;2023-07-31T01:23:23;0.40;;;0.30;;
29026;SDS011;16120;48.608;9.092;2023-07-31T01:27:23;0.40;;;0.30;;
29026;SDS011;16120;48.608;9.092;2023-07-31T01:31:20;0.40;;;0.30;;
29026;SDS011;16120;48.608;9.092;2023-07-31T01:35:16;0.40;;;0.30;;
29026;SDS011;16120;48.608;9.092;2023-07-31T01:39:11;0.50;;;0.30;;
29026;SDS011;16120;48.608;9.092;2023-07-31T01:43:07;0.50;;;0.30;;
29026;SDS011;16120;48.608;9.092;2023-07-31T01:47:03;0.43;;;0.30;;
29026;SDS011;16120;48.608;9.092;2023-07-31T01:51:00;0.40;;;0.30;;
29026;SDS011;16120;48.608;9.092;2023-07-31T01:54:55;0.40;;;0.30;;
29026;SDS011;16120;48.608;9.092;2023-07-31T01:58:51;0.40;;;0.30;;
29026;SDS011;16120;48.608;9.092;2023-07-31T02:02:47;0.50;;;0.30;;
29026;SDS011;16120;48.608;9.092;2023-07-31T02:06:42;0.40;;;0.30;;
29026;SDS011;16120;48.608;9.092;2023-07-31T02:10:38;0.50;;;0.30;;
29026;SDS011;16120;48.608;9.092;2023-07-31T02:14:34;0.40;;;0.30;;
29026;SDS011;16120;48.608;9.092;2023-07-31T02:18:30;0.40;;;0.30;;
29026;SDS011;16120;48.608;9.092;2023-07-31T02:22:25;0.43;;;0.30;;
29026;SDS011;16120;48.608;9.092;2023-07-31T02:26:20;0.47;;;0.30;;
29026;SDS011;16120;48.608;9.092;2023-07-31T02:30:17;0.40;;;0.30;;
29026;SDS011;16120;48.608;9.092;2023-07-31T02:34:12;0.40;;;0.30;;
29026;SDS011;16120;48.608;9.092;2023-07-31T02:38:07;0.40;;;0.30;;
29026;SDS011;16120;48.608;9.092;2023-07-31T02:42:03;0.50;;;0.30;;
29026;SDS011;16120;48.608;9.092;2023-07-31T02:45:59;0.40;;;0.30;;
29026;SDS011;16120;48.608;9.092;2023-07-31T02:49:54;0.40;;;0.30;;
29026;SDS011;16120;48.608;9.092;2023-07-31T02:53:50;0.50;;;0.30;;
29026;SDS011;16120;48.608;9.092;2023-07-31T02:57:45;0.50;;;0.30;;
29026;SDS011;16120;48.608;9.092;2023-07-31T03:01:41;0.50;;;0.30;;
29026;SDS011;16120;48.608;9.092;2023-07-31T03:05:37;0.50;;;0.30;;
29026;SDS011;16120;48.608;9.092;2023-07-31T03:09:32;0.50;;;0.30;;
29026;SDS011;16120;48.608;9.092;2023-07-31T03:13:27;0.50;;;0.30;;
29026;SDS011;16120;48.608;9.092;2023-07-31T03:17:24;0.50;;;0.30;;
29026;SDS011;16120;48.608;9.092;2023-07-31T03:21:19;0.43;;;0.30;;
29026;SDS011;16120;48.608;9.092;2023-07-31T03:25:14;0.40;;;0.30;;
29026;SDS011;16120;48.608;9.092;2023-07-31T03:29:09;0.40;;;0.30;;
29026;SDS011;16120;48.608;9.092;2023-07-31T03:33:06;0.50;;;0.30;;
29026;SDS011;16120;48.608;9.092;2023-07-31T03:37:01;0.40;;;0.30;;
29026;SDS011;16120;48.608;9.092;2023-07-31T03:40:56;0.50;;;0.30;;
29026;SDS011;16120;48.608;9.092;2023-07-31T03:44:52;0.40;;;0.30;;
29026;SDS011;16120;48.608;9.092;2023-07-31T03:48:48;0.40;;;0.30;;
29026;SDS011;16120;48.608;9.092;2023-07-31T03:52:43;0.50;;;0.30;;
29026;SDS011;16120;48.608;9.092;2023-07-31T03:56:39;0.50;;;0.30;;
29026;SDS011;16120;48.608;9.092;2023-07-31T04:00:34;0.40;;;0.30;;
29026;SDS011;16120;48.608;9.092;2023-07-31T04:04:30;0.43;;;0.30;;
29026;SDS011;16120;48.608;9.092;2023-07-31T04:08:26;0.40;;;0.30;;
29026;SDS011;16120;48.608;9.092;2023-07-31T04:12:21;0.40;;;0.30;;
29026;SDS011;16120;48.608;9.092;2023-07-31T04:16:16;0.40;;;0.30;;
29026;SDS011;16120;48.608;9.092;2023-07-31T04:20:13;0.40;;;0.30;;
29026;SDS011;16120;48.608;9.092;2023-07-31T04:24:08;0.43;;;0.30;;
29026;SDS011;16120;48.608;9.092;2023-07-31T04:28:03;0.40;;;0.30;;
29026;SDS011;16120;48.608;9.092;2023-07-31T04:31:58;0.40;;;0.30;;
29026;SDS011;16120;48.608;9.092;2023-07-31T04:35:55;0.40;;;0.30;;
29026;SDS011;16120;48.608;9.092;2023-07-31T04:39:50;0.40;;;0.30;;
29026;SDS011;16120;48.608;9.092;2023-07-31T04:43:45;0.50;;;0.30;;
29026;SDS011;16120;48.608;9.092;2023-07-31T04:47:40;0.50;;;0.30;;
29026;SDS011;16120;48.608;9.092;2023-07-31T04:51:37;0.40;;;0.30;;
29026;SDS011;16120;48.608;9.092;2023-07-31T04:55:32;0.47;;;0.30;;
29026;SDS011;16120;48.608;9.092;2023-07-31T04:59:27;0.40;;;0.30;;
29026;SDS011;16120;48.608;9.092;2023-07-31T05:03:22;0.50;;;0.30;;
29026;SDS011;16120;48.608;9.092;2023-07-31T05:07:19;0.43;;;0.30;;
29026;SDS011;16120;48.608;9.092;2023-07-31T05:11:15;0.50;;;0.30;;
29026;SDS011;16120;48.608;9.092;2023-07-31T05:15:10;0.50;;;0.30;;
29026;SDS011;16120;48.608;9.092;2023-07-31T05:19:05;0.50;;;0.30;;
29026;SDS011;16120;48.608;9.092;2023-07-31T05:23:02;0.50;;;0.30;;
29026;SDS011;16120;48.608;9.092;2023-07-31T05:26:57;0.50;;;0.30;;
29026;SDS011;16120;48.608;9.092;2023-07-31T05:30:54;0.50;;;0.30;;
29026;SDS011;16120;48.608;9.092;2023-07-31T05:34:53;0.50;;;0.30;;
29026;SDS011;16120;48.608;9.092;2023-07-31T05:38:49;0.50;;;0.30;;
29026;SDS011;16120;48.608;9.092;2023-07-31T05:42:45;0.50;;;0.30;;
29026;SDS011;16120;48.608;9.092;2023-07-31T05:46:40;0.50;;;0.30;;
29026;SDS011;16120;48.608;9.092;2023-07-31T05:50:35;0.50;;;0.30;;
29026;SDS011;16120;48.608;9.092;2023-07-31T05:54:32;0.50;;;0.30;;
29026;SDS011;16120;48.608;9.092;2023-07-31T05:58:28;0.50;;;0.30;;
29026;SDS011;16120;48.608;9.092;2023-07-31T06:02:23;0.50;;;0.30;;
29026;SDS011;16120;48.608;9.092;2023-07-31T06:06:18;0.50;;;0.30;;
29026;SDS011;16120;48.608;9.092;2023-07-31T06:10:15;0.50;;;0.30;;
29026;SDS011;16120;48.608;9.092;2023-07-31T06:14:10;0.50;;;0.30;;
29026;SDS011;16120;48.608;9.092;2023-07-31T06:18:05;0.50;;;0.30;;
29026;SDS011;16120;48.608;9.092;2023-07-31T06:22:00;0.50;;;0.30;;
29026;SDS011;16120;48.608;9.092;2023-07-31T06:25:57;0.50;;;0.30;;
29026;SDS011;16120;48.608;9.092;2023-07-31T06:29:52;0.50;;;0.30;;
29026;SDS011;16120;48.608;9.092;2023-07-31T06:33:47;0.50;;;0.40;;
29026;SDS011;16120;48.608;9.092;2023-07-31T06:37:43;0.50;;;0.40;;
29026;SDS011;16120;48.608;9.092;2023-07-31T06:41:39;0.50;;;0.40;;
29026;SDS011;16120;48.608;9.092;2023-07-31T06:45:34;0.50;;;0.30;;
29026;SDS011;16120;48.608;9.092;2023-07-31T06:49:30;0.50;;;0.30;;
29026;SDS011;16120;48.608;9.092;2023-07-31T06:53:26;0.50;;;0.30;;
29026;SDS011;16120;48.608;9.092;2023-07-31T06:57:22;0.50;;;0.30;;
29026;SDS011;16120;48.608;9.092;2023-07-31T07:01:17;0.50;;;0.30;;
29026;SDS011;16120;48.608;9.092;2023-07-31T07:05:13;0.50;;;0.30;;
29026;SDS011;16120;48.608;9.092;2023-07-31T07:09:08;0.50;;;0.30;;
29026;SDS011;16120;48.608;9.092;2023-07-31T07:13:05;0.50;;;0.40;;
29026;SDS011;16120;48.608;9.092;2023-07-31T07:17:00;0.50;;;0.30;;
29026;SDS011;16120;48.608;9.092;2023-07-31T07:20:56;0.50;;;0.30;;
29026;SDS011;16120;48.608;9.092;2023-07-31T07:24:51;0.50;;;0.30;;
29026;SDS011;16120;48.608;9.092;2023-07-31T07:28:49;0.50;;;0.40;;
29026;SDS011;16120;48.608;9.092;2023-07-31T07:32:44;0.50;;;0.40;;
29026;SDS011;16120;48.608;9.092;2023-07-31T07:36:40;0.50;;;0.30;;
29026;SDS011;16120;48.608;9.092;2023-07-31T07:40:38;0.50;;;0.30;;
29026;SDS011;16120;48.608;9.092;2023-07-31T07:44:34;0.50;;;0.30;;
29026;SDS011;16120;48.608;9.092;2023-07-31T07:48:29;0.50;;;0.30;;
29026;SDS011;16120;48.608;9.092;2023-07-31T07:52:25;0.50;;;0.30;;
29026;SDS011;16120;48.608;9.092;2023-07-31T07:56:20;0.50;;;0.30;;
29026;SDS011;16120;48.608;9.092;2023-07-31T08:00:17;0.50;;;0.30;;
29026;SDS011;16120;48.608;9.092;2023-07-31T08:04:12;0.50;;;0.40;;
29026;SDS011;16120;48.608;9.092;2023-07-31T08:08:07;0.50;;;0.40;;
29026;SDS011;16120;48.608;9.092;2023-07-31T08:12:03;0.50;;;0.30;;
29026;SDS011;16120;48.608;9.092;2023-07-31T08:15:59;0.50;;;0.30;;
29026;SDS011;16120;48.608;9.092;2023-07-31T08:19:54;0.50;;;0.30;;
29026;SDS011;16120;48.608;9.092;2023-07-31T08:23:50;0.50;;;0.30;;
29026;SDS011;16120;48.608;9.092;2023-07-31T08:27:45;0.50;;;0.30;;
29026;SDS011;16120;48.608;9.092;2023-07-31T08:31:41;0.50;;;0.30;;
29026;SDS011;16120;48.608;9.092;2023-07-31T08:35:37;0.50;;;0.30;;
29026;SDS011;16120;48.608;9.092;2023-07-31T08:39:32;0.50;;;0.30;;
29026;SDS011;16120;48.608;9.092;2023-07-31T08:43:27;0.50;;;0.30;;
29026;SDS011;16120;48.608;9.092;2023-07-31T08:47:24;0.50;;;0.30;;
29026;SDS011;16120;48.608;9.092;2023-07-31T08:51:19;0.50;;;0.30;;
29026;SDS011;16120;48.608;9.092;2023-07-31T08:55:14;0.50;;;0.30;;
29026;SDS011;16120;48.608;9.092;2023-07-31T08:59:10;0.50;;;0.30;;
29026;SDS011;16120;48.608;9.092;2023-07-31T09:03:09;0.50;;;0.30;;
29026;SDS011;16120;48.608;9.092;2023-07-31T09:07:05;0.50;;;0.40;;
29026;SDS011;16120;48.608;9.092;2023-07-31T09:11:01;0.50;;;0.30;;
29026;SDS011;16120;48.608;9.092;2023-07-31T09:14:57;0.50;;;0.30;;
29026;SDS011;16120;48.608;9.092;2023-07-31T09:18:54;0.50;;;0.30;;
29026;SDS011;16120;48.608;9.092;2023-07-31T09:22:49;0.50;;;0.30;;
29026;SDS011;16120;48.608;9.092;2023-07-31T09:26:44;0.50;;;0.30;;
29026;SDS011;16120;48.608;9.092;2023-07-31T09:30:46;0.50;;;0.30;;
29026;SDS011;16120;48.608;9.092;2023-07-31T09:34:43;0.50;;;0.30;;
29026;SDS011;16120;48.608;9.092;2023-07-31T09:38:38;0.50;;;0.30;;
29026;SDS011;16120;48.608;9.092;2023-07-31T09:42:34;0.50;;;0.30;;
29026;SDS011;16120;48.608;9.092;2023-07-31T09:46:29;0.50;;;0.30;;
29026;SDS011;16120;48.608;9.092;2023-07-31T09:50:26;0.50;;;0.30;;
29026;SDS011;16120;48.608;9.092;2023-07-31T09:54:21;0.50;;;0.30;;
29026;SDS011;16120;48.608;9.092;2023-07-31T09:58:16;0.60;;;0.30;;
29026;SDS011;16120;48.608;9.092;2023-07-31T10:02:13;0.50;;;0.30;;
29026;SDS011;16120;48.608;9.092;2023-07-31T10:06:10;0.50;;;0.30;;
29026;SDS011;16120;48.608;9.092;2023-07-31T10:10:06;0.50;;;0.30;;
29026;SDS011;16120;48.608;9.092;2023-07-31T10:14:02;0.50;;;0.30;;
29026;SDS011;16120;48.608;9.092;2023-07-31T10:17:58;0.50;;;0.30;;
29026;SDS011;16120;48.608;9.092;2023-07-31T10:21:54;0.50;;;0.30;;
29026;SDS011;16120;48.608;9.092;2023-07-31T10:25:50;0.50;;;0.30;;
29026;SDS011;16120;48.608;9.092;2023-07-31T10:29:46;0.50;;;0.30;;
29026;SDS011;16120;48.608;9.092;2023-07-31T10:33:42;0.50;;;0.40;;
29026;SDS011;16120;48.608;9.092;2023-07-31T10:37:40;0.50;;;0.30;;
29026;SDS011;16120;48.608;9.092;2023-07-31T10:41:35;0.57;;;0.30;;
29026;SDS011;16120;48.608;9.092;2023-07-31T10:45:31;0.53;;;0.30;;
29026;SDS011;16120;48.608;9.092;2023-07-31T10:49:27;0.50;;;0.30;;
29026;SDS011;16120;48.608;9.092;2023-07-31T10:53:26;0.50;;;0.30;;
29026;SDS011;16120;48.608;9.092;2023-07-31T10:57:22;0.50;;;0.30;;
29026;SDS011;16120;48.608;9.092;2023-07-31T11:01:17;0.50;;;0.30;;
29026;SDS011;16120;48.608;9.092;2023-07-31T11:05:12;0.50;;;0.30;;
29026;SDS011;16120;48.608;9.092;2023-07-31T11:09:09;0.50;;;0.30;;
29026;SDS011;16120;48.608;9.092;2023-07-31T11:13:08;0.50;;;0.30;;
29026;SDS011;16120;48.608;9.092;2023-07-31T11:17:05;0.50;;;0.30;;
29026;SDS011;16120;48.608;9.092;2023-07-31T11:21:00;0.50;;;0.30;;
29026;SDS011;16120;48.608;9.092;2023-07-31T11:24:57;0.50;;;0.30;;
29026;SDS011;16120;48.608;9.092;2023-07-31T11:28:52;0.50;;;0.30;;
29026;SDS011;16120;48.608;9.092;2023-07-31T11:32:48;0.50;;;0.30;;
29026;SDS011;16120;48.608;9.092;2023-07-31T11:36:52;0.50;;;0.30;;
29026;SDS011;16120;48.608;9.092;2023-07-31T11:40:49;0.50;;;0.30;;
29026;SDS011;16120;48.608;9.092;2023-07-31T11:44:44;0.50;;;0.30;;
29026;SDS011;16120;48.608;9.092;2023-07-31T11:48:39;0.50;;;0.30;;
29026;SDS011;16120;48.608;9.092;2023-07-31T11:52:40;0.50;;;0.30;;
29026;SDS011;16120;48.608;9.092;2023-07-31T11:56:38;0.50;;;0.30;;
29026;SDS011;16120;48.608;9.092;2023-07-31T12:00:33;0.53;;;0.30;;
29026;SDS011;16120;48.608;9.092;2023-07-31T12:04:28;0.50;;;0.30;;
29026;SDS011;16120;48.608;9.092;2023-07-31T12:08:24;0.50;;;0.30;;
29026;SDS011;16120;48.608;9.092;2023-07-31T12:12:21;0.50;;;0.30;;
29026;SDS011;16120;48.608;9.092;2023-07-31T12:16:16;0.50;;;0.30;;
29026;SDS011;16120;48.608;9.092;2023-07-31T12:20:12;0.50;;;0.30;;
29026;SDS011;16120;48.608;9.092;2023-07-31T12:24:07;0.50;;;0.30;;
29026;SDS011;16120;48.608;9.092;2023-07-31T12:28:07;0.50;;;0.30;;
29026;SDS011;16120;48.608;9.092;2023-07-31T12:32:02;0.50;;;0.30;;
29026;SDS011;16120;48.608;9.092;2023-07-31T12:35:58;0.50;;;0.30;;
29026;SDS011;16120;48.608;9.092;2023-07-31T12:39:53;0.50;;;0.30;;
29026;SDS011;16120;48.608;9.092;2023-07-31T12:43:50;0.50;;;0.30;;
29026;SDS011;16120;48.608;9.092;2023-07-31T12:47:45;0.50;;;0.30;;
29026;SDS011;16120;48.608;9.092;2023-07-31T12:51:40;0.50;;;0.30;;
29026;SDS011;16120;48.608;9.092;2023-07-31T12:55:36;0.50;;;0.30;;
29026;SDS011;16120;48.608;9.092;2023-07-31T12:59:32;0.50;;;0.30;;
29026;SDS011;16120;48.608;9.092;2023-07-31T13:03:28;0.50;;;0.30;;
29026;SDS011;16120;48.608;9.092;2023-07-31T13:07:23;0.50;;;0.30;;
29026;SDS011;16120;48.608;9.092;2023-07-31T13:11:18;0.50;;;0.30;;
29026;SDS011;16120;48.608;9.092;2023-07-31T13:15:15;0.50;;;0.40;;
29026;SDS011;16120;48.608;9.092;2023-07-31T13:19:10;0.50;;;0.30;;
29026;SDS011;16120;48.608;9.092;2023-07-31T13:23:05;0.50;;;0.30;;
29026;SDS011;16120;48.608;9.092;2023-07-31T13:27:00;0.50;;;0.30;;
29026;SDS011;16120;48.608;9.092;2023-07-31T13:30:57;0.50;;;0.30;;
29026;SDS011;16120;48.608;9.092;2023-07-31T13:34:52;0.50;;;0.30;;
29026;SDS011;16120;48.608;9.092;2023-07-31T13:38:47;0.50;;;0.30;;
29026;SDS011;16120;48.608;9.092;2023-07-31T13:42:43;0.50;;;0.30;;
29026;SDS011;16120;48.608;9.092;2023-07-31T13:46:39;0.50;;;0.30;;
29026;SDS011;16120;48.608;9.092;2023-07-31T13:50:34;0.50;;;0.30;;
29026;SDS011;16120;48.608;9.092;2023-07-31T13:54:30;0.50;;;0.30;;
29026;SDS011;16120;48.608;9.092;2023-07-31T13:58:25;0.50;;;0.30;;
29026;SDS011;16120;48.608;9.092;2023-07-31T14:02:21;0.50;;;0.30;;
29026;SDS011;16120;48.608;9.092;2023-07-31T14:06:17;0.60;;;0.30;;
29026;SDS011;16120;48.608;9.092;2023-07-31T14:10:12;0.50;;;0.30;;
29026;SDS011;16120;48.608;9.092;2023-07-31T14:14:08;0.50;;;0.30;;
29026;SDS011;16120;48.608;9.092;2023-07-31T14:18:04;0.50;;;0.30;;
29026;SDS011;16120;48.608;9.092;2023-07-31T14:22:00;0.50;;;0.30;;
29026;SDS011;16120;48.608;9.092;2023-07-31T14:25:55;0.50;;;0.30;;
29026;SDS011;16120;48.608;9.092;2023-07-31T14:29:50;0.50;;;0.30;;
29026;SDS011;16120;48.608;9.092;2023-07-31T14:33:47;0.50;;;0.30;;
29026;SDS011;16120;48.608;9.092;2023-07-31T14:37:47;0.50;;;0.30;;
29026;SDS011;16120;48.608;9.092;2023-07-31T14:41:43;0.70;;;0.30;;
29026;SDS011;16120;48.608;9.092;2023-07-31T14:45:38;0.70;;;0.30;;
29026;SDS011;16120;48.608;9.092;2023-07-31T14:49:34;0.70;;;0.30;;
29026;SDS011;16120;48.608;9.092;2023-07-31T14:53:30;0.70;;;0.30;;
29026;SDS011;16120;48.608;9.092;2023-07-31T14:57:25;0.70;;;0.30;;
29026;SDS011;16120;48.608;9.092;2023-07-31T15:01:20;0.70;;;0.30;;
29026;SDS011;16120;48.608;9.092;2023-07-31T15:05:17;0.70;;;0.30;;
29026;SDS011;16120;48.608;9.092;2023-07-31T15:09:12;0.70;;;0.30;;
29026;SDS011;16120;48.608;9.092;2023-07-31T15:13:07;0.70;;;0.30;;
29026;SDS011;16120;48.608;9.092;2023-07-31T15:17:02;0.70;;;0.30;;
29026;SDS011;16120;48.608;9.092;2023-07-31T15:20:59;0.70;;;0.30;;
29026;SDS011;16120;48.608;9.092;2023-07-31T15:24:54;0.70;;;0.30;;
29026;SDS011;16120;48.608;9.092;2023-07-31T15:28:50;0.70;;;0.30;;
29026;SDS011;16120;48.608;9.092;2023-07-31T15:32:50;0.70;;;0.30;;
29026;SDS011;16120;48.608;9.092;2023-07-31T15:36:47;0.70;;;0.30;;
29026;SDS011;16120;48.608;9.092;2023-07-31T15:40:42;0.70;;;0.30;;
29026;SDS011;16120;48.608;9.092;2023-07-31T15:44:40;0.70;;;0.30;;
29026;SDS011;16120;48.608;9.092;2023-07-31T15:48:35;0.70;;;0.30;;
29026;SDS011;16120;48.608;9.092;2023-07-31T15:52:31;0.70;;;0.30;;
29026;SDS011;16120;48.608;9.092;2023-07-31T15:56:28;0.70;;;0.30;;
29026;SDS011;16120;48.608;9.092;2023-07-31T16:00:23;0.70;;;0.30;;
29026;SDS011;16120;48.608;9.092;2023-07-31T16:04:18;0.70;;;0.30;;
29026;SDS011;16120;48.608;9.092;2023-07-31T16:08:15;0.70;;;0.30;;
29026;SDS011;16120;48.608;9.092;2023-07-31T16:12:19;0.70;;;0.30;;
29026;SDS011;16120;48.608;9.092;2023-07-31T16:16:15;0.70;;;0.30;;
29026;SDS011;16120;48.608;9.092;2023-07-31T16:20:10;0.70;;;0.30;;
29026;SDS011;16120;48.608;9.092;2023-07-31T16:24:07;0.70;;;0.30;;
29026;SDS011;16120;48.608;9.092;2023-07-31T16:28:02;0.70;;;0.30;;
29026;SDS011;16120;48.608;9.092;2023-07-31T16:31:57;0.70;;;0.30;;
29026;SDS011;16120;48.608;9.092;2023-07-31T16:35:53;0.70;;;0.30;;
29026;SDS011;16120;48.608;9.092;2023-07-31T16:39:49;0.70;;;0.30;;
29026;SDS011;16120;48.608;9.092;2023-07-31T16:43:48;0.70;;;0.30;;
29026;SDS011;16120;48.608;9.092;2023-07-31T16:47:43;0.70;;;0.30;;
29026;SDS011;16120;48.608;9.092;2023-07-31T16:51:38;0.70;;;0.30;;
29026;SDS011;16120;48.608;9.092;2023-07-31T16:55:34;0.70;;;0.30;;
29026;SDS011;16120;48.608;9.092;2023-07-31T16:59:30;0.80;;;0.30;;
29026;SDS011;16120;48.608;9.092;2023-07-31T17:03:25;0.80;;;0.30;;
29026;SDS011;16120;48.608;9.092;2023-07-31T17:07:20;0.80;;;0.30;;
29026;SDS011;16120;48.608;9.092;2023-07-31T17:11:17;0.80;;;0.30;;
29026;SDS011;16120;48.608;9.092;2023-07-31T17:15:12;0.80;;;0.30;;
29026;SDS011;16120;48.608;9.092;2023-07-31T17:19:07;0.80;;;0.30;;
29026;SDS011;16120;48.608;9.092;2023-07-31T17:23:02;0.80;;;0.30;;
29026;SDS011;16120;48.608;9.092;2023-07-31T17:26:59;0.80;;;0.30;;
29026;SDS011;16120;48.608;9.092;2023-07-31T17:30:54;0.80;;;0.30;;
29026;SDS011;16120;48.608;9.092;2023-07-31T17:34:49;0.80;;;0.30;;
29026;SDS011;16120;48.608;9.092;2023-07-31T17:38:46;0.80;;;0.30;;
29026;SDS011;16120;48.608;9.092;2023-07-31T17:42:42;0.80;;;0.30;;
29026;SDS011;16120;48.608;9.092;2023-07-31T17:46:38;0.80;;;0.30;;
29026;SDS011;16120;48.608;9.092;2023-07-31T17:50:33;0.80;;;0.30;;
29026;SDS011;16120;48.608;9.092;2023-07-31T17:54:28;0.80;;;0.30;;
29026;SDS011;16120;48.608;9.092;2023-07-31T17:58:25;0.80;;;0.30;;
29026;SDS011;16120;48.608;9.092;2023-07-31T18:02:20;0.80;;;0.30;;
29026;SDS011;16120;48.608;9.092;2023-07-31T18:06:15;0.80;;;0.30;;
29026;SDS011;16120;48.608;9.092;2023-07-31T18:10:10;0.80;;;0.30;;
29026;SDS011;16120;48.608;9.092;2023-07-31T18:14:07;0.80;;;0.30;;
29026;SDS011;16120;48.608;9.092;2023-07-31T18:18:02;0.80;;;0.30;;
29026;SDS011;16120;48.608;9.092;2023-07-31T18:21:57;0.80;;;0.30;;
29026;SDS011;16120;48.608;9.092;2023-07-31T18:25:52;0.80;;;0.30;;
29026;SDS011;16120;48.608;9.092;2023-07-31T18:29:49;0.80;;;0.30;;
29026;SDS011;16120;48.608;9.092;2023-07-31T18:33:44;0.80;;;0.30;;
29026;SDS011;16120;48.608;9.092;2023-07-31T18:37:39;0.80;;;0.30;;
29026;SDS011;16120;48.608;9.092;2023-07-31T18:41:35;0.80;;;0.30;;
29026;SDS011;16120;48.608;9.092;2023-07-31T18:45:33;0.80;;;0.30;;
29026;SDS011;16120;48.608;9.092;2023-07-31T18:49:28;0.80;;;0.30;;
29026;SDS011;16120;48.608;9.092;2023-07-31T18:53:23;0.80;;;0.30;;
29026;SDS011;16120;48.608;9.092;2023-07-31T18:57:18;0.80;;;0.30;;
29026;SDS011;16120;48.608;9.092;2023-07-31T19:01:15;0.80;;;0.30;;
29026;SDS011;16120;48.608;9.092;2023-07-31T19:05:10;0.80;;;0.30;;
29026;SDS011;16120;48.608;9.092;2023-07-31T19:09:09;0.80;;;0.30;;
29026;SDS011;16120;48.608;9.092;2023-07-31T19:13:04;0.80;;;0.30;;
29026;SDS011;16120;48.608;9.092;2023-07-31T19:17:01;0.80;;;0.30;;
29026;SDS011;16120;48.608;9.092;2023-07-31T19:20:56;0.80;;;0.30;;
29026;SDS011;16120;48.608;9.092;2023-07-31T19:24:51;0.80;;;0.30;;
29026;SDS011;16120;48.608;9.092;2023-07-31T19:28:47;0.80;;;0.30;;
29026;SDS011;16120;48.608;9.092;2023-07-31T19:32:43;0.80;;;0.30;;
29026;SDS011;16120;48.608;9.092;2023-07-31T19:36:38;0.80;;;0.30;;
29026;SDS011;16120;48.608;9.092;2023-07-31T19:40:34;0.80;;;0.30;;
29026;SDS011;16120;48.608;9.092;2023-07-31T19:44:29;0.80;;;0.30;;
29026;SDS011;16120;48.608;9.092;2023-07-31T19:48:26;0.80;;;0.30;;
29026;SDS011;16120;48.608;9.092;2023-07-31T19:52:21;0.80;;;0.30;;
29026;SDS011;16120;48.608;9.092;2023-07-31T19:56:16;0.80;;;0.30;;
29026;SDS011;16120;48.608;9.092;2023-07-31T20:00:11;0.80;;;0.30;;
29026;SDS011;16120;48.608;9.092;2023-07-31T20:04:10;0.80;;;0.30;;
29026;SDS011;16120;48.608;9.092;2023-07-31T20:08:06;0.80;;;0.30;;
29026;SDS011;16120;48.608;9.092;2023-07-31T20:12:01;0.80;;;0.30;;
29026;SDS011;16120;48.608;9.092;2023-07-31T20:15:56;0.80;;;0.30;;
29026;SDS011;16120;48.608;9.092;2023-07-31T20:19:53;0.80;;;0.30;;
29026;SDS011;16120;48.608;9.092;2023-07-31T20:23:48;0.80;;;0.30;;
29026;SDS011;16120;48.608;9.092;2023-07-31T20:27:43;0.80;;;0.30;;
29026;SDS011;16120;48.608;9.092;2023-07-31T20:31:39;0.80;;;0.30;;
29026;SDS011;16120;48.608;9.092;2023-07-31T20:35:35;0.80;;;0.30;;
29026;SDS011;16120;48.608;9.092;2023-07-31T20:39:31;0.70;;;0.30;;
29026;SDS011;16120;48.608;9.092;2023-07-31T20:43:26;0.80;;;0.30;;
29026;SDS011;16120;48.608;9.092;2023-07-31T20:47:21;0.80;;;0.30;;
29026;SDS011;16120;48.608;9.092;2023-07-31T20:51:18;0.70;;;0.30;;
29026;SDS011;16120;48.608;9.092;2023-07-31T20:55:13;0.70;;;0.30;;
29026;SDS011;16120;48.608;9.092;2023-07-31T20:59:09;0.70;;;0.30;;
29026;SDS011;16120;48.608;9.092;2023-07-31T21:03:04;0.80;;;0.40;;
29026;SDS011;16120;48.608;9.092;2023-07-31T21:07:01;0.70;;;0.30;;
29026;SDS011;16120;48.608;9.092;2023-07-31T21:10:56;0.70;;;0.30;;
29026;SDS011;16120;48.608;9.092;2023-07-31T21:14:51;0.70;;;0.30;;
29026;SDS011;16120;48.608;9.092;2023-07-31T21:18:47;0.80;;;0.30;;
29026;SDS011;16120;48.608;9.092;2023-07-31T21:22:43;0.77;;;0.30;;
29026;SDS011;16120;48.608;9.092;2023-07-31T21:26:38;0.70;;;0.30;;
29026;SDS011;16120;48.608;9.092;2023-07-31T21:30:34;0.70;;;0.30;;
29026;SDS011;16120;48.608;9.092;2023-07-31T21:34:29;0.70;;;0.40;;
29026;SDS011;16120;48.608;9.092;2023-07-31T21:38:26;0.70;;;0.30;;
29026;SDS011;16120;48.608;9.092;2023-07-31T21:42:21;0.70;;;0.30;;
29026;SDS011;16120;48.608;9.092;2023-07-31T21:46:16;0.70;;;0.30;;
29026;SDS011;16120;48.608;9.092;2023-07-31T21:50:11;0.70;;;0.30;;
29026;SDS011;16120;48.608;9.092;2023-07-31T21:54:08;0.70;;;0.40;;
29026;SDS011;16120;48.608;9.092;2023-07-31T21:58:03;0.70;;;0.30;;
29026;SDS011;16120;48.608;9.092;2023-07-31T22:06:09;0.70;;;0.30;;
29026;SDS011;16120;48.608;9.092;2023-07-31T22:10:06;0.70;;;0.30;;
29026;SDS011;16120;48.608;9.092;2023-07-31T22:14:01;0.70;;;0.30;;
29026;SDS011;16120;48.608;9.092;2023-07-31T22:17:57;0.70;;;0.30;;
29026;SDS011;16120;48.608;9.092;2023-07-31T22:21:55;0.70;;;0.30;;
29026;SDS011;16120;48.608;9.092;2023-07-31T22:25:52;0.73;;;0.30;;
29026;SDS011;16120;48.608;9.092;2023-07-31T22:29:47;0.70;;;0.30;;
29026;SDS011;16120;48.608;9.092;2023-07-31T22:33:42;0.70;;;0.30;;
29026;SDS011;16120;48.608;9.092;2023-07-31T22:37:38;0.70;;;0.30;;
29026;SDS011;16120;48.608;9.092;2023-07-31T22:41:40;0.70;;;0.30;;
29026;SDS011;16120;48.608;9.092;2023-07-31T22:45:35;0.70;;;0.30;;
29026;SDS011;16120;48.608;9.092;2023-07-31T22:49:31;0.73;;;0.30;;
29026;SDS011;16120;48.608;9.092;2023-07-31T22:53:26;0.70;;;0.30;;
29026;SDS011;16120;48.608;9.092;2023-07-31T22:57:23;0.70;;;0.30;;
29026;SDS011;16120;48.608;9.092;2023-07-31T23:01:18;0.70;;;0.30;;
29026;SDS011;16120;48.608;9.092;2023-07-31T23:05:13;0.70;;;0.30;;
29026;SDS011;16120;48.608;9.092;2023-07-31T23:09:09;0.70;;;0.30;;
29026;SDS011;16120;48.608;9.092;2023-07-31T23:13:05;0.70;;;0.30;;
29026;SDS011;16120;48.608;9.092;2023-07-31T23:17:01;0.70;;;0.30;;
29026;SDS011;16120;48.608;9.092;2023-07-31T23:20:56;0.70;;;0.33;;
29026;SDS011;16120;48.608;9.092;2023-07-31T23:24:51;0.70;;;0.30;;
29026;SDS011;16120;48.608;9.092;2023-07-31T23:28:48;0.70;;;0.30;;
29026;SDS011;16120;48.608;9.092;2023-07-31T23:32:43;0.70;;;0.30;;
29026;SDS011;16120;48.608;9.092;2023-07-31T23:36:38;0.70;;;0.30;;
29026;SDS011;16120;48.608;9.092;2023-07-31T23:40:35;0.70;;;0.30;;
29026;SDS011;16120;48.608;9.092;2023-07-31T23:44:32;0.70;;;0.30;;